Terminal Aerodrome Forecast
Issued by NWS

Home | Current Version | Previous Version | Graphics & Text | Print | Product List | Glossary On
Versions: 1 2 3 4 5 6 7 8 9 10 11 12 13 14 15 16 17 18 19 20 21 22
782
FTUS43 KBIS 231738
TAFJMS
TAF
KJMS 231738Z 2318/2418 19014G20KT P6SM SCT120
     FM231900 25014G20KT P6SM SCT040
     FM232100 29014G21KT P6SM FEW060
     FM240100 30009KT P6SM FEW250
     FM241600 28013G19KT P6SM FEW250=

USA.gov is the U.S. government's official web portal to all federal, state and local government web resources and services.